MMAS

Details ICAO MMAS (AGU)
Name JESUS TERAN INTL
Region Mexico
Timezone America/Mexico_City (UTC-5.0)
Plans Departing 23
Arriving 16
Stats Elevation 6,112 ft / 1,863 m (AMSL)
Location 21.703989° -102.317148°
Runways 2
Magnetic Variation 5.862° E
Sunrise 2018-05-27 12:08:14 UTC / 2018-05-27 07:08:14 Local
Sunset 2018-05-28 01:27:34 UTC / 2018-05-27 20:27:34 Local
Advertisement - Login to hide

Runways

ID Width Length Bearing (true) Bearing (mag) Surface Threshold Offset Overrun Length
04 98 ft / 30 m 3,483 ft / 1,061 m 48.93° 43.07° Asphalt 0 ft / 0 m 0 ft / 0 m
17 148 ft / 45 m 9,899 ft / 3,017 m 182.62° 176.76° Asphalt 0 ft / 0 m 185 ft / 56 m
22 98 ft / 30 m 3,483 ft / 1,061 m 228.93° 223.07° Asphalt 656 ft / 200 m 0 ft / 0 m
35 148 ft / 45 m 9,899 ft / 3,017 m 2.62° 356.76° Asphalt 0 ft / 0 m 200 ft / 61 m

Map

Weather


0- 5 10 15 20 25 30 35+ Temperature / ° C

Clouds and Precipitation
Forecast for 2018-05-27 18:00 UTC. Updated 5 hours ago

Ground ~20,000 ft ~40,000 ft Winds

METAR

MMAS 272147Z 35014KT 10SM SCT050 33/M02 A3003 RMK 8/100 PRESFR

TAF

Not found

Frequencies

Tower 118.60 MHz AGUASCALIENTES TWR
Approach 119.05 MHz LEON APP
Warning: Do not use this data for real-world aviation or navigation. No guarantee of current accuracy is given.